createdAt,value
2017-03-04T00:00:21.836Z,11.63
2017-03-04T00:01:31.835Z,11.7
2017-03-04T00:02:41.847Z,11.67
2017-03-04T00:03:51.884Z,11.7
2017-03-04T00:05:02.307Z,11.71
2017-03-04T00:06:13.126Z,11.68
2017-03-04T00:07:23.521Z,11.64
2017-03-04T00:08:34.344Z,11.64
2017-03-04T00:09:44.728Z,11.6
2017-03-04T00:10:55.119Z,11.6
2017-03-04T00:12:05.761Z,11.59
2017-03-04T00:13:16.576Z,11.64
2017-03-04T00:14:27.423Z,11.64
2017-03-04T00:15:37.822Z,11.68
2017-03-04T00:16:48.622Z,11.6
2017-03-04T00:17:59.848Z,11.61
2017-03-04T00:19:10.228Z,11.61
2017-03-04T00:20:21.030Z,11.61
2017-03-04T00:21:31.442Z,11.64
2017-03-04T00:22:41.888Z,11.63
2017-03-04T00:23:52.666Z,11.51
2017-03-04T00:25:03.084Z,11.56
2017-03-04T00:26:13.475Z,11.64
2017-03-04T00:27:23.908Z,11.6
2017-03-04T00:28:34.305Z,11.63
2017-03-04T00:29:44.722Z,11.61
2017-03-04T00:30:55.507Z,11.63
2017-03-04T00:32:06.328Z,11.66
2017-03-04T00:33:15.953Z,11.61
2017-03-04T00:34:26.812Z,11.61
2017-03-04T00:35:37.226Z,11.6
2017-03-04T00:36:47.217Z,11.57
2017-03-04T00:37:57.223Z,11.67
2017-03-04T00:39:08.025Z,11.56
2017-03-04T00:40:18.017Z,11.64
2017-03-04T00:41:28.806Z,11.57
2017-03-04T00:42:39.621Z,11.6
2017-03-04T00:43:49.606Z,11.66
2017-03-04T00:45:00.411Z,11.59
2017-03-04T00:46:11.232Z,11.51
2017-03-04T00:47:22.274Z,11.52
2017-03-04T00:48:32.697Z,11.51
2017-03-04T00:49:43.496Z,11.53
2017-03-04T00:50:53.912Z,11.46
2017-03-04T00:52:04.694Z,11.56
2017-03-04T00:53:15.087Z,11.59
2017-03-04T00:54:24.680Z,11.48
2017-03-04T00:55:34.675Z,11.49
2017-03-04T00:56:45.072Z,11.57
2017-03-04T00:57:55.459Z,11.42
2017-03-04T00:59:05.835Z,11.45
2017-03-04T01:00:16.606Z,11.45
2017-03-04T01:01:27.025Z,11.45
2017-03-04T01:02:37.408Z,11.48
2017-03-04T01:03:48.193Z,11.39
2017-03-04T01:04:58.997Z,11.35
2017-03-04T01:06:09.846Z,11.35
2017-03-04T01:07:20.227Z,11.34
2017-03-04T01:08:31.007Z,11.39
2017-03-04T01:09:41.406Z,11.34
2017-03-04T01:10:51.014Z,11.38
2017-03-04T01:12:01.820Z,11.34
2017-03-04T01:13:11.811Z,11.42
2017-03-04T01:14:22.600Z,11.34
2017-03-04T01:15:33.619Z,11.39
2017-03-04T01:16:44.015Z,11.42
2017-03-04T01:17:54.786Z,11.31
2017-03-04T01:19:04.753Z,11.33
2017-03-04T01:20:14.790Z,11.39
2017-03-04T01:21:25.182Z,11.38
2017-03-04T01:22:35.573Z,11.38
2017-03-04T01:23:45.959Z,11.35
2017-03-04T01:24:56.764Z,11.38
2017-03-04T01:26:07.138Z,11.34
2017-03-04T01:27:17.128Z,11.28
2017-03-04T01:28:27.917Z,11.34
2017-03-04T01:29:38.321Z,11.3
2017-03-04T01:30:49.093Z,11.26
2017-03-04T01:31:59.468Z,11.3
2017-03-04T01:33:10.251Z,11.27
2017-03-04T01:34:21.077Z,11.27
2017-03-04T01:35:31.068Z,11.3
2017-03-04T01:36:41.490Z,11.26
2017-03-04T01:37:51.475Z,11.23
2017-03-04T01:39:01.460Z,11.27
2017-03-04T01:40:11.845Z,11.3
2017-03-04T01:41:22.636Z,11.34
2017-03-04T01:42:32.222Z,11.27
2017-03-04T01:43:43.015Z,11.3
2017-03-04T01:44:53.792Z,11.3
2017-03-04T01:46:03.783Z,11.34
2017-03-04T01:47:13.767Z,11.39
2017-03-04T01:48:24.534Z,11.24
2017-03-04T01:49:34.923Z,11.31
2017-03-04T01:50:44.937Z,11.34
2017-03-04T01:51:55.317Z,11.3
2017-03-04T01:53:05.327Z,11.38
2017-03-04T01:54:16.122Z,11.27
2017-03-04T01:55:26.510Z,11.21
2017-03-04T01:56:37.334Z,11.18
2017-03-04T01:57:48.115Z,11.28
2017-03-04T01:58:58.541Z,11.26
2017-03-04T02:00:09.312Z,11.16
2017-03-04T02:01:20.067Z,11.31
2017-03-04T02:02:30.507Z,11.15
2017-03-04T02:03:40.884Z,11.18
2017-03-04T02:04:51.671Z,11.21
2017-03-04T02:06:01.671Z,11.18
2017-03-04T02:07:12.443Z,11.23
2017-03-04T02:08:22.860Z,11.21
2017-03-04T02:09:32.871Z,11.31
2017-03-04T02:10:42.864Z,11.21
2017-03-04T02:11:53.269Z,11.21
2017-03-04T02:13:04.082Z,11.23
2017-03-04T02:14:14.477Z,11.21
2017-03-04T02:15:25.255Z,11.24
2017-03-04T02:16:34.856Z,11.2
2017-03-04T02:17:45.255Z,11.23
2017-03-04T02:18:56.061Z,11.2
2017-03-04T02:20:06.877Z,11.3
2017-03-04T02:21:17.264Z,11.21
2017-03-04T02:22:27.669Z,11.18
2017-03-04T02:23:38.046Z,11.21
2017-03-04T02:24:48.848Z,11.23
2017-03-04T02:25:59.254Z,11.16
2017-03-04T02:27:10.038Z,11.16
2017-03-04T02:28:20.450Z,11.18
2017-03-04T02:29:30.840Z,11.12
2017-03-04T02:30:40.839Z,11.12
2017-03-04T02:31:50.434Z,11.15
2017-03-04T02:33:01.226Z,11.09
2017-03-04T02:34:12.007Z,11.15
2017-03-04T02:35:22.789Z,11.03
2017-03-04T02:36:32.782Z,11.06
2017-03-04T02:37:43.196Z,11.05
2017-03-04T02:38:53.623Z,11.09
2017-03-04T02:40:03.612Z,11.03
2017-03-04T02:41:13.998Z,11.02
2017-03-04T02:42:24.390Z,11.05
2017-03-04T02:43:35.156Z,10.95
2017-03-04T02:44:45.941Z,11.02
2017-03-04T02:45:56.735Z,10.95
2017-03-04T02:47:07.122Z,10.95
2017-03-04T02:48:17.885Z,10.92
2017-03-04T02:49:28.680Z,11.02
2017-03-04T02:50:39.056Z,11
2017-03-04T02:51:49.450Z,10.94
2017-03-04T02:52:59.841Z,10.98
2017-03-04T02:54:10.617Z,10.94
2017-03-04T02:55:21.022Z,11
2017-03-04T02:56:31.447Z,10.94
2017-03-04T02:57:41.430Z,10.95
2017-03-04T02:58:52.204Z,10.9
2017-03-04T03:00:01.822Z,10.97
2017-03-04T03:01:12.621Z,10.97
2017-03-04T03:32:17.748Z,7.31
2017-03-04T03:33:27.745Z,7.15
2017-03-04T03:34:37.336Z,7.13
2017-03-04T03:35:47.717Z,7.16
2017-03-04T03:36:58.480Z,7.23
2017-03-04T03:38:08.892Z,7.26
2017-03-04T03:39:19.669Z,7.37
2017-03-04T03:40:30.039Z,7.51
2017-03-04T03:41:40.832Z,7.64
2017-03-04T03:42:50.861Z,7.82
2017-03-04T03:44:01.633Z,7.95
2017-03-04T03:45:12.466Z,8.11
2017-03-04T03:46:22.875Z,8.21
2017-03-04T03:47:33.685Z,8.4
2017-03-04T03:48:44.066Z,8.44
2017-03-04T03:49:54.848Z,8.5
2017-03-04T03:51:05.632Z,8.64
2017-03-04T03:52:16.418Z,8.76
2017-03-04T03:53:26.800Z,8.71
2017-03-04T03:54:37.617Z,8.94
2017-03-04T03:55:47.605Z,9.09
2017-03-04T03:56:57.981Z,9.19
2017-03-04T03:58:07.966Z,9.26
2017-03-04T03:59:18.362Z,9.27
2017-03-04T04:00:29.165Z,9.29
2017-03-04T04:01:39.932Z,9.38
2017-03-04T04:02:50.714Z,9.44
2017-03-04T04:04:01.486Z,9.45
2017-03-04T04:05:11.872Z,9.42
2017-03-04T04:06:22.664Z,9.42
2017-03-04T04:07:33.051Z,9.5
2017-03-04T04:08:43.464Z,9.52
2017-03-04T04:09:53.854Z,9.57
2017-03-04T04:11:04.264Z,9.6
2017-03-04T04:12:15.038Z,9.64
2017-03-04T04:13:25.428Z,9.6
2017-03-04T04:14:36.216Z,9.63
2017-03-04T04:15:46.599Z,9.63
2017-03-04T04:16:56.988Z,9.64
2017-03-04T04:18:07.392Z,9.56
2017-03-04T04:19:18.193Z,9.64
2017-03-04T04:20:28.591Z,9.59
2017-03-04T04:21:39.391Z,9.66
2017-03-04T04:22:49.775Z,9.57
2017-03-04T04:24:00.542Z,9.59
2017-03-04T04:25:10.935Z,9.62
2017-03-04T04:26:21.338Z,9.55
2017-03-04T04:27:32.107Z,9.55
2017-03-04T04:28:42.486Z,9.48
2017-03-04T04:29:52.859Z,9.53
2017-03-04T04:31:02.894Z,9.45
2017-03-04T04:32:12.877Z,9.45
2017-03-04T04:33:23.682Z,9.41
2017-03-04T04:34:33.699Z,9.42
2017-03-04T04:35:44.077Z,9.3
2017-03-04T04:36:54.898Z,9.38
2017-03-04T04:38:05.280Z,9.32
2017-03-04T04:39:15.271Z,9.27
2017-03-04T04:40:25.271Z,9.27
2017-03-04T04:41:36.045Z,9.23
2017-03-04T04:42:46.434Z,9.23
2017-03-04T04:43:57.219Z,9.16
2017-03-04T04:45:07.210Z,9.23
2017-03-04T04:46:18.024Z,9.24
2017-03-04T04:47:28.817Z,9.27
2017-03-04T04:48:38.804Z,9.2
2017-03-04T04:49:49.611Z,9.19
2017-03-04T04:51:00.019Z,9.21
2017-03-04T04:52:10.397Z,9.23
2017-03-04T04:53:20.788Z,9.17
2017-03-04T04:54:31.587Z,9.17
2017-03-04T04:55:42.370Z,9.19
2017-03-04T04:56:52.383Z,9.26
2017-03-04T04:58:03.144Z,9.09
2017-03-04T04:59:13.956Z,9.23
2017-03-04T05:00:24.779Z,9.2
2017-03-04T05:01:35.549Z,9.23
2017-03-04T05:02:46.361Z,9.16
2017-03-04T05:03:55.977Z,9.23
2017-03-04T05:05:05.578Z,9.19
2017-03-04T05:06:15.615Z,9.16
2017-03-04T05:07:25.998Z,9.21
2017-03-04T05:08:36.374Z,9.24
2017-03-04T05:09:46.381Z,9.26
2017-03-04T05:10:56.783Z,9.21
2017-03-04T05:12:07.173Z,9.26
2017-03-04T05:13:17.166Z,9.2
2017-03-04T05:14:27.558Z,9.2
2017-03-04T05:15:38.330Z,9.21
2017-03-04T05:16:48.701Z,9.2
2017-03-04T05:17:59.098Z,9.24
2017-03-04T05:19:09.885Z,9.23
2017-03-04T05:20:19.902Z,9.14
2017-03-04T05:21:29.937Z,9.17
2017-03-04T05:22:40.949Z,9.04
2017-03-04T05:23:51.732Z,9.11
2017-03-04T05:25:02.136Z,8.98
2017-03-04T05:26:12.521Z,9
2017-03-04T05:27:23.316Z,8.94
2017-03-04T05:28:34.091Z,8.94
2017-03-04T05:29:44.092Z,8.92
2017-03-04T05:30:54.934Z,8.9
2017-03-04T05:32:05.755Z,8.92
2017-03-04T05:33:16.535Z,8.92
2017-03-04T05:34:27.346Z,8.89
2017-03-04T05:35:38.103Z,8.95
2017-03-04T05:36:48.486Z,8.98
2017-03-04T05:37:58.867Z,8.94
2017-03-04T05:39:09.657Z,9
2017-03-04T05:40:20.037Z,9.01
2017-03-04T05:41:30.029Z,8.97
2017-03-04T05:42:40.799Z,8.95
2017-03-04T05:43:51.180Z,9
2017-03-04T05:45:01.978Z,9.12
2017-03-04T05:46:12.379Z,9.09
2017-03-04T05:47:22.788Z,9.12
2017-03-04T05:48:33.547Z,9.14
2017-03-04T05:49:43.144Z,9.19
2017-03-04T05:50:53.934Z,9.14
2017-03-04T05:52:04.713Z,9.12
2017-03-04T05:53:14.725Z,9.14
2017-03-04T05:54:25.512Z,9.17
2017-03-04T05:55:35.493Z,9.14
2017-03-04T05:56:46.300Z,9.17
2017-03-04T05:57:56.701Z,9.16
2017-03-04T05:59:07.091Z,9.14
2017-03-04T06:00:17.091Z,9.14
2017-03-04T06:01:27.076Z,9.09
2017-03-04T06:02:37.864Z,9.16
2017-03-04T06:03:47.877Z,9.19
2017-03-04T06:04:57.458Z,9.19
2017-03-04T06:06:07.849Z,9.19
2017-03-04T06:07:18.252Z,9.19
2017-03-04T06:08:28.276Z,9.16
2017-03-04T06:09:38.678Z,9.23
2017-03-04T06:10:49.477Z,9.24
2017-03-04T06:11:59.855Z,9.24
2017-03-04T06:13:10.244Z,9.26
2017-03-04T06:14:21.030Z,9.27
2017-03-04T06:15:31.422Z,9.24
2017-03-04T06:16:41.814Z,9.34
2017-03-04T06:17:52.647Z,9.29
2017-03-04T06:19:03.408Z,9.39
2017-03-04T06:20:14.212Z,9.39
2017-03-04T06:21:24.228Z,9.42
2017-03-04T06:22:34.993Z,9.53
2017-03-04T06:23:45.368Z,9.44
2017-03-04T06:24:55.377Z,9.55
2017-03-04T06:26:04.958Z,9.59
2017-03-04T06:27:15.376Z,9.55
2017-03-04T06:28:26.151Z,9.57
2017-03-04T06:29:36.933Z,9.67
2017-03-04T06:30:47.331Z,9.66
2017-03-04T06:31:58.131Z,9.74
2017-03-04T06:33:08.104Z,9.77
2017-03-04T06:34:18.875Z,9.71
2017-03-04T06:35:29.295Z,9.64
2017-03-04T06:36:40.088Z,9.64
2017-03-04T06:37:50.931Z,9.71
2017-03-04T06:39:01.723Z,9.82
2017-03-04T06:40:11.769Z,9.82
2017-03-04T06:41:22.146Z,9.78
2017-03-04T06:42:32.564Z,9.84
2017-03-04T06:43:43.370Z,9.92
2017-03-04T06:44:53.765Z,9.96
2017-03-04T06:46:04.562Z,9.96
2017-03-04T06:47:14.941Z,10.08
2017-03-04T06:48:24.953Z,10.11
2017-03-04T06:49:34.946Z,10.17
2017-03-04T06:50:44.929Z,10.28
2017-03-04T06:51:54.920Z,10.13
2017-03-04T06:53:05.705Z,10.31
2017-03-04T06:54:16.139Z,10.35
2017-03-04T06:55:26.930Z,10.38
2017-03-04T06:56:37.738Z,10.46
2017-03-04T06:57:47.740Z,10.61
2017-03-04T06:58:58.515Z,10.66
2017-03-04T07:00:08.903Z,10.69
2017-03-04T07:01:18.893Z,10.83
2017-03-04T07:02:29.661Z,10.9
2017-03-04T07:03:39.243Z,10.97
2017-03-04T07:04:49.670Z,11.08
2017-03-04T07:05:59.263Z,11.1
2017-03-04T07:07:09.668Z,11.16
2017-03-04T07:08:20.459Z,11.26
2017-03-04T07:09:31.280Z,11.38
2017-03-04T07:10:41.282Z,11.31
2017-03-04T07:11:51.331Z,11.51
2017-03-04T07:13:02.092Z,11.64
2017-03-04T07:14:12.498Z,11.71
2017-03-04T07:15:22.899Z,11.68
2017-03-04T07:16:33.707Z,11.81
2017-03-04T07:17:43.314Z,11.84
2017-03-04T07:18:54.124Z,11.89
2017-03-04T07:20:04.921Z,12.05
2017-03-04T07:21:15.716Z,12.16
2017-03-04T07:22:26.490Z,12.23
2017-03-04T07:23:37.289Z,12.33
2017-03-04T07:24:47.290Z,12.31
2017-03-04T07:25:58.064Z,12.47
2017-03-04T07:27:08.093Z,12.48
2017-03-04T07:28:18.478Z,12.56
2017-03-04T07:29:28.896Z,12.69
2017-03-04T07:30:39.303Z,12.83
2017-03-04T07:31:49.695Z,12.81
2017-03-04T07:33:00.076Z,13.02
2017-03-04T07:34:10.869Z,13.02
2017-03-04T07:35:20.505Z,12.99
2017-03-04T07:36:30.484Z,12.99
2017-03-04T07:37:40.869Z,13.13
2017-03-04T07:38:51.279Z,13.1
2017-03-04T07:40:01.687Z,13.14
2017-03-04T07:41:12.089Z,13.11
2017-03-04T07:42:22.859Z,13.2
2017-03-04T07:43:33.251Z,13.24
2017-03-04T07:44:44.055Z,13.35
2017-03-04T07:45:54.833Z,13.54
2017-03-04T07:47:05.240Z,13.63
2017-03-04T07:48:16.029Z,13.75
2017-03-04T07:49:26.815Z,13.99
2017-03-04T07:50:37.623Z,13.97
2017-03-04T07:51:48.011Z,14.06
2017-03-04T07:52:58.409Z,14.2
2017-03-04T07:54:09.203Z,14.3
2017-03-04T07:55:20.010Z,14.45
2017-03-04T07:56:30.375Z,14.49
2017-03-04T07:57:40.756Z,14.59
2017-03-04T07:58:51.155Z,14.61
2017-03-04T08:00:01.564Z,14.67
2017-03-04T08:01:12.357Z,14.82
2017-03-04T08:02:22.358Z,14.79
2017-03-04T08:03:33.140Z,14.86
2017-03-04T08:04:43.523Z,14.87
2017-03-04T08:05:53.126Z,14.89
2017-03-04T08:07:03.932Z,14.74
2017-03-04T08:08:13.987Z,14.82
2017-03-04T08:09:23.987Z,14.9
2017-03-04T08:10:33.995Z,14.97
2017-03-04T08:11:44.384Z,15.08
2017-03-04T08:12:55.191Z,15.08
2017-03-04T08:14:05.600Z,15.23
2017-03-04T08:15:15.586Z,15.34
2017-03-04T08:16:25.990Z,15.35
2017-03-04T08:17:36.796Z,15.52
2017-03-04T08:18:46.823Z,15.59
2017-03-04T08:19:57.606Z,15.65
2017-03-04T08:21:08.416Z,15.78
2017-03-04T08:22:19.226Z,15.86
2017-03-04T08:23:30.070Z,15.84
2017-03-04T08:24:40.865Z,15.91
2017-03-04T08:25:51.654Z,16
2017-03-04T08:27:02.031Z,16.02
2017-03-04T08:28:12.854Z,16.17
2017-03-04T08:29:23.642Z,16.25
2017-03-04T08:30:34.430Z,16.34
2017-03-04T08:31:44.038Z,16.44
2017-03-04T08:32:54.462Z,16.47
2017-03-04T08:34:05.220Z,16.45
2017-03-04T08:35:16.001Z,16.45
2017-03-04T08:36:26.831Z,16.48
2017-03-04T08:37:37.240Z,16.54
2017-03-04T08:38:47.657Z,16.59
2017-03-04T08:39:57.649Z,16.59
2017-03-04T08:41:07.661Z,16.62
2017-03-04T08:42:17.684Z,16.67
2017-03-04T08:43:27.683Z,16.62
2017-03-04T08:44:37.672Z,16.67
2017-03-04T08:45:48.098Z,16.77
2017-03-04T08:46:58.501Z,16.88
2017-03-04T08:48:08.901Z,16.94
2017-03-04T08:49:19.707Z,17.09
2017-03-04T08:50:29.703Z,17.07
2017-03-04T08:51:40.120Z,17.28
2017-03-04T08:52:50.557Z,17.17
2017-03-04T08:54:00.949Z,17.38
2017-03-04T08:55:11.347Z,17.32
2017-03-04T08:56:21.328Z,17.4
2017-03-04T08:57:31.725Z,17.43
2017-03-04T08:58:40.941Z,17.49
2017-03-04T08:59:51.731Z,17.52
2017-03-04T09:01:02.524Z,17.71
2017-03-04T09:02:12.940Z,17.69
2017-03-04T09:03:23.760Z,17.79
2017-03-04T09:04:34.595Z,17.86
2017-03-04T09:05:44.585Z,17.9
2017-03-04T09:06:55.381Z,18.03
2017-03-04T09:08:06.171Z,18.14
2017-03-04T09:09:16.969Z,18.2
2017-03-04T09:10:27.367Z,18.17
2017-03-04T09:11:37.780Z,18.23
2017-03-04T09:12:48.185Z,18.26
2017-03-04T09:13:58.993Z,18.26
2017-03-04T09:15:09.408Z,18.42
2017-03-04T09:16:19.817Z,18.53
2017-03-04T09:17:29.804Z,18.57
2017-03-04T09:18:40.212Z,18.54
2017-03-04T09:19:50.644Z,18.65
2017-03-04T09:21:01.444Z,18.65
2017-03-04T09:22:11.856Z,18.68
2017-03-04T09:23:22.253Z,18.63
2017-03-04T09:24:32.900Z,18.6
2017-03-04T09:25:43.730Z,18.69
2017-03-04T09:26:54.175Z,18.78
2017-03-04T09:28:04.992Z,18.78
2017-03-04T09:29:15.431Z,18.97
2017-03-04T09:30:25.839Z,19.06
2017-03-04T09:31:35.093Z,19.15
2017-03-04T09:32:45.118Z,19.09
2017-03-04T09:33:55.960Z,18.94
2017-03-04T09:35:06.755Z,19.13
2017-03-04T09:36:17.160Z,19.19
2017-03-04T09:37:27.566Z,19.3
2017-03-04T09:38:38.006Z,19.4
2017-03-04T09:39:48.809Z,19.49
2017-03-04T09:40:59.620Z,19.43
2017-03-04T09:42:10.402Z,19.55
2017-03-04T09:43:20.814Z,19.61
2017-03-04T09:44:31.197Z,19.65
2017-03-04T09:45:41.986Z,19.75
2017-03-04T09:46:52.438Z,19.87
2017-03-04T09:48:03.232Z,19.85
2017-03-04T09:49:13.621Z,19.87
2017-03-04T09:50:24.437Z,19.93
2017-03-04T09:51:34.839Z,20.07
2017-03-04T09:52:45.265Z,20.1
2017-03-04T09:53:56.089Z,20.1
2017-03-04T09:55:06.901Z,20.25
2017-03-04T09:56:17.705Z,20.3
2017-03-04T09:57:28.110Z,20.32
2017-03-04T09:58:38.957Z,20.37
2017-03-04T09:59:49.781Z,20.46
2017-03-04T10:01:00.584Z,20.44
2017-03-04T10:02:11.393Z,20.44
2017-03-04T10:03:21.808Z,20.42
2017-03-04T10:04:32.210Z,20.44
2017-03-04T10:05:42.586Z,20.63
2017-03-04T10:06:53.384Z,20.72
2017-03-04T10:08:04.188Z,20.78
2017-03-04T10:09:14.983Z,20.88
2017-03-04T10:10:24.983Z,20.93
2017-03-04T10:11:35.789Z,21.04
2017-03-04T10:12:46.604Z,21.19
2017-03-04T10:13:56.991Z,21.19
2017-03-04T10:15:07.789Z,21.34
2017-03-04T10:16:18.595Z,21.38
2017-03-04T10:17:28.968Z,21.61
2017-03-04T10:18:39.367Z,21.61
2017-03-04T10:19:49.751Z,21.76
2017-03-04T10:21:00.552Z,21.78
2017-03-04T10:22:11.341Z,21.86
2017-03-04T10:23:22.140Z,21.92
2017-03-04T10:24:31.772Z,21.93
2017-03-04T10:25:42.179Z,22.05
2017-03-04T10:26:52.990Z,22.08
2017-03-04T10:28:03.832Z,22.2
2017-03-04T10:29:14.649Z,22.24
2017-03-04T10:30:25.127Z,22.26
2017-03-04T10:31:34.887Z,22.45
2017-03-04T10:32:45.520Z,22.42
2017-03-04T10:33:55.567Z,22.46
2017-03-04T10:35:06.343Z,22.51
2017-03-04T10:36:16.746Z,22.75
2017-03-04T10:37:27.564Z,22.76
2017-03-04T10:38:38.386Z,22.86
2017-03-04T10:39:49.199Z,22.91
2017-03-04T10:40:59.607Z,22.96
2017-03-04T10:42:10.012Z,22.91
2017-03-04T10:43:20.030Z,23.07
2017-03-04T10:44:30.465Z,23.16
2017-03-04T10:45:40.087Z,23.18
2017-03-04T10:46:50.936Z,23.26
2017-03-04T10:48:01.748Z,23.37
2017-03-04T10:49:11.739Z,23.6
2017-03-04T10:50:22.563Z,23.53
2017-03-04T10:51:33.392Z,23.59
2017-03-04T10:52:44.197Z,23.57
2017-03-04T10:53:55.023Z,23.66
2017-03-04T10:55:05.432Z,23.77
2017-03-04T10:56:16.257Z,23.89
2017-03-04T10:57:27.046Z,23.99
2017-03-04T10:58:37.089Z,24.07
2017-03-04T10:59:47.538Z,24.17
2017-03-04T11:00:57.968Z,24.26
2017-03-04T11:02:08.782Z,24.29
2017-03-04T11:03:19.575Z,24.48
2017-03-04T11:04:30.399Z,24.66
2017-03-04T11:05:40.863Z,24.77
2017-03-04T11:06:51.659Z,24.77
2017-03-04T11:08:02.479Z,24.93
2017-03-04T11:09:13.283Z,24.86
2017-03-04T11:10:23.743Z,25.04
2017-03-04T11:11:34.562Z,25.15
2017-03-04T11:12:44.964Z,25.23
2017-03-04T11:13:55.783Z,25.32
2017-03-04T11:15:06.601Z,25.48
2017-03-04T11:16:16.619Z,25.41
2017-03-04T11:17:27.435Z,25.49
2017-03-04T11:18:38.217Z,25.51
2017-03-04T11:19:48.588Z,25.49
2017-03-04T11:20:59.376Z,25.57
2017-03-04T11:22:09.005Z,25.49
2017-03-04T11:23:19.409Z,25.6
2017-03-04T11:24:30.243Z,25.59
2017-03-04T11:25:40.247Z,25.57
2017-03-04T11:26:50.270Z,25.7
2017-03-04T11:28:00.284Z,25.69
2017-03-04T11:29:11.127Z,25.67
2017-03-04T11:30:21.529Z,25.69
2017-03-04T11:31:31.935Z,25.66
2017-03-04T11:32:41.933Z,25.75
2017-03-04T11:33:51.949Z,25.67
2017-03-04T11:35:02.766Z,25.71
2017-03-04T11:36:13.608Z,25.64
2017-03-04T11:37:24.016Z,25.59
2017-03-04T11:38:34.439Z,25.74
2017-03-04T11:39:44.454Z,25.7
2017-03-04T11:40:54.077Z,25.82
2017-03-04T11:42:04.517Z,25.78
2017-03-04T11:43:15.309Z,25.81
2017-03-04T11:44:26.153Z,25.67
2017-03-04T11:45:36.159Z,25.75
2017-03-04T11:46:46.954Z,25.7
2017-03-04T11:47:57.347Z,25.67
2017-03-04T11:49:07.746Z,25.69
2017-03-04T11:50:17.380Z,25.81
2017-03-04T11:51:28.178Z,25.84
2017-03-04T11:52:38.606Z,25.86
2017-03-04T11:53:49.017Z,25.84
2017-03-04T11:54:59.815Z,25.93
2017-03-04T11:56:09.431Z,25.93
2017-03-04T11:57:19.850Z,25.99
2017-03-04T11:58:29.870Z,26.03
2017-03-04T11:59:40.293Z,26.11
2017-03-04T12:00:50.688Z,26.12
2017-03-04T12:02:00.668Z,26.09
2017-03-04T12:03:10.672Z,26.03
2017-03-04T12:04:21.474Z,26.03
2017-03-04T12:05:31.856Z,26.03
2017-03-04T12:06:42.113Z,26.07
2017-03-04T12:07:52.524Z,26.17
2017-03-04T12:09:02.960Z,26.2
2017-03-04T12:10:13.379Z,26.12
2017-03-04T12:11:24.196Z,26.26
2017-03-04T12:12:34.998Z,26.24
2017-03-04T12:13:45.802Z,26.24
2017-03-04T12:14:56.612Z,26.17
2017-03-04T12:16:07.038Z,26.16
2017-03-04T12:17:17.443Z,26.22
2017-03-04T12:18:27.892Z,26.31
2017-03-04T12:19:37.905Z,26.31
2017-03-04T12:20:48.312Z,26.32
2017-03-04T12:21:58.705Z,26.41
2017-03-04T12:23:09.361Z,26.45
2017-03-04T12:24:20.261Z,26.47
2017-03-04T12:25:31.119Z,26.47
2017-03-04T12:26:41.947Z,26.54
2017-03-04T12:27:52.790Z,26.54
2017-03-04T12:29:03.641Z,26.56
2017-03-04T12:30:14.469Z,26.54
2017-03-04T12:31:25.290Z,26.54
2017-03-04T12:32:34.922Z,26.6
2017-03-04T12:33:44.971Z,26.59
2017-03-04T12:34:54.608Z,26.61
2017-03-04T12:36:05.103Z,26.61
2017-03-04T12:37:15.493Z,26.61
2017-03-04T12:38:25.903Z,26.67
2017-03-04T12:39:36.315Z,26.63
2017-03-04T12:40:46.739Z,26.63
2017-03-04T12:41:57.159Z,26.61
2017-03-04T12:43:07.962Z,26.57
2017-03-04T12:44:17.975Z,26.68
2017-03-04T12:45:28.793Z,26.64
2017-03-04T12:46:38.794Z,26.64
2017-03-04T12:47:48.811Z,26.67
2017-03-04T12:48:59.269Z,26.68
2017-03-04T12:50:10.122Z,26.71
2017-03-04T12:51:20.511Z,26.74
2017-03-04T12:52:30.523Z,26.71
2017-03-04T12:53:40.930Z,26.78
2017-03-04T12:54:51.738Z,26.67
2017-03-04T12:56:02.557Z,26.63
2017-03-04T12:57:12.559Z,26.67
2017-03-04T12:58:23.020Z,26.56
2017-03-04T12:59:33.436Z,26.45
2017-03-04T13:00:43.854Z,26.42
2017-03-04T13:01:54.300Z,26.3
2017-03-04T13:03:05.109Z,26.27
2017-03-04T13:04:15.507Z,26.23
2017-03-04T13:05:25.906Z,26.17
2017-03-04T13:06:36.358Z,26.15
2017-03-04T13:07:47.165Z,26.04
2017-03-04T13:08:57.586Z,26.03
2017-03-04T13:10:08.004Z,26.03
2017-03-04T13:11:18.417Z,25.91
2017-03-04T13:12:28.831Z,25.94
2017-03-04T13:13:39.618Z,25.85
2017-03-04T13:14:50.049Z,25.93
2017-03-04T13:16:00.475Z,25.75
2017-03-04T13:17:11.301Z,25.66
2017-03-04T13:18:22.146Z,25.74
2017-03-04T13:19:32.570Z,25.64
2017-03-04T13:20:42.967Z,25.67
2017-03-04T13:21:53.624Z,25.64
2017-03-04T13:23:04.059Z,25.54
2017-03-04T13:24:14.857Z,25.49
2017-03-04T13:25:25.272Z,25.48
2017-03-04T13:26:36.075Z,25.37
2017-03-04T13:27:46.869Z,25.34
2017-03-04T13:28:57.668Z,25.29
2017-03-04T13:30:08.103Z,25.26
2017-03-04T13:31:18.905Z,25.22
2017-03-04T13:32:29.711Z,25.22
2017-03-04T13:33:40.542Z,25.2
2017-03-04T13:34:51.345Z,25.08
2017-03-04T13:36:01.785Z,25.2
2017-03-04T13:37:12.610Z,25.19
2017-03-04T13:38:23.014Z,25.19
2017-03-04T13:39:33.026Z,25.02
2017-03-04T13:40:43.431Z,25.05
2017-03-04T13:41:54.230Z,25.02
2017-03-04T13:43:04.246Z,25.02
2017-03-04T13:44:14.243Z,25.07
2017-03-04T13:45:24.669Z,25.05
2017-03-04T13:46:35.475Z,25.01
2017-03-04T13:47:46.306Z,25.02
2017-03-04T13:48:56.322Z,25.04
2017-03-04T13:50:05.964Z,25.01
2017-03-04T13:51:16.753Z,24.96
2017-03-04T13:52:27.556Z,24.97
2017-03-04T13:53:38.000Z,24.87
2017-03-04T13:54:48.811Z,24.77
2017-03-04T13:55:58.435Z,24.8
2017-03-04T13:57:08.835Z,24.74
2017-03-04T13:58:19.638Z,24.77
2017-03-04T13:59:30.441Z,24.8
2017-03-04T14:00:40.458Z,24.82
2017-03-04T14:01:50.887Z,24.8
2017-03-04T14:03:01.743Z,24.71
2017-03-04T14:04:12.543Z,24.78
2017-03-04T14:05:23.329Z,24.67
2017-03-04T14:06:34.144Z,24.7
2017-03-04T14:07:44.972Z,24.59
2017-03-04T14:08:55.783Z,24.44
2017-03-04T14:10:06.590Z,24.27
2017-03-04T14:11:16.626Z,24.17
2017-03-04T14:12:27.455Z,24.18
2017-03-04T14:13:38.267Z,24.02
2017-03-04T14:14:49.066Z,24.07
2017-03-04T14:15:59.877Z,23.89
2017-03-04T14:17:10.272Z,23.93
2017-03-04T14:18:20.312Z,23.9
2017-03-04T14:19:30.737Z,23.78
2017-03-04T14:20:41.545Z,23.62
2017-03-04T14:21:51.157Z,23.62
2017-03-04T14:23:01.953Z,23.59
2017-03-04T14:24:12.744Z,23.56
2017-03-04T14:25:23.165Z,23.34
2017-03-04T14:26:33.980Z,23.32
2017-03-04T14:27:44.798Z,23.34
2017-03-04T14:28:55.214Z,23.34
2017-03-04T14:30:05.651Z,23.38
2017-03-04T14:31:16.461Z,23.56
2017-03-04T14:32:27.268Z,23.66
2017-03-04T14:33:37.270Z,23.64
2017-03-04T14:34:48.142Z,23.66
2017-03-04T14:35:57.787Z,23.55
2017-03-04T14:37:08.218Z,23.45
2017-03-04T14:38:18.234Z,23.35
2017-03-04T14:39:29.044Z,23.24
2017-03-04T14:40:39.052Z,23
2017-03-04T14:41:49.507Z,22.97
2017-03-04T14:43:00.328Z,22.85
2017-03-04T14:44:11.152Z,22.69
2017-03-04T14:45:21.559Z,22.69
2017-03-04T14:46:32.389Z,22.63
2017-03-04T14:47:43.187Z,22.59
2017-03-04T14:48:53.818Z,22.48
2017-03-04T14:50:04.623Z,22.49
2017-03-04T14:51:15.439Z,22.41
2017-03-04T14:52:25.851Z,22.45
2017-03-04T14:53:36.282Z,22.38
2017-03-04T14:54:47.086Z,22.26
2017-03-04T14:55:56.701Z,22.2
2017-03-04T14:57:06.706Z,22.16
2017-03-04T14:58:17.333Z,22.07
2017-03-04T14:59:27.755Z,21.99
2017-03-04T15:00:38.622Z,22
2017-03-04T15:01:49.019Z,21.94
2017-03-04T15:02:59.431Z,21.89
2017-03-04T15:04:10.260Z,21.74
2017-03-04T15:05:20.257Z,21.76
2017-03-04T15:06:30.275Z,21.74
2017-03-04T15:07:41.101Z,21.68
2017-03-04T15:08:51.928Z,21.71
2017-03-04T15:10:02.355Z,21.68
2017-03-04T15:11:13.154Z,21.59
2017-03-04T15:12:23.949Z,21.62
2017-03-04T15:13:34.381Z,21.67
2017-03-04T15:14:45.209Z,21.64
2017-03-04T15:15:56.017Z,21.61
2017-03-04T15:17:06.025Z,21.62
2017-03-04T15:18:16.045Z,21.55
2017-03-04T15:19:26.880Z,21.61
2017-03-04T15:20:37.301Z,21.53
2017-03-04T15:21:48.146Z,21.52
2017-03-04T15:22:58.949Z,21.52
2017-03-04T15:24:08.954Z,21.58
2017-03-04T15:25:19.762Z,21.53
2017-03-04T15:26:30.542Z,21.46
2017-03-04T15:27:41.357Z,21.4
2017-03-04T15:28:51.433Z,21.37
2017-03-04T15:30:02.245Z,21.33
2017-03-04T15:31:13.069Z,21.22
2017-03-04T15:32:23.472Z,21.16
2017-03-04T15:33:33.932Z,21.18
2017-03-04T15:34:43.956Z,21.11
2017-03-04T15:35:54.359Z,21.01
2017-03-04T15:37:04.389Z,20.9
2017-03-04T15:38:14.031Z,20.88
2017-03-04T15:39:24.468Z,20.85
2017-03-04T15:40:35.303Z,20.72
2017-03-04T15:41:46.087Z,20.76
2017-03-04T15:42:56.540Z,20.68
2017-03-04T15:44:07.360Z,20.61
2017-03-04T15:45:17.396Z,20.58
2017-03-04T15:46:28.220Z,20.46